메인 페이지
METAR-TAF:

METAR-TAF

공항 :

배턴루지, 루이지애나, 미국

위도: 30-32-14N, 경도: 091-08-49W, 고도: 21m

현재 날씨관측

예보는 56분 전, 22:53시(UTC)에 발표되었습니다.
동남동5kt
온도 27°C
습도 79%
기압 1013 hPa
시정: 16.1km
고도 12000ft 상공 구름 조금

METAR: KBTR 172253Z 11005KT 10SM FEW120 27/23 A2990 RMK AO2 RAE2155B16E33 SLP123 P0000 T02720228

시각: 18:49 (23:49 UTC)

예보

예보는 25분 전, 23:24시(UTC)에 발표되었습니다.
예보 대상 시간: 18일 00시부터 18일 24시까지 (UTC)
동남동5kt
시정: 10km
고도 12000ft 상공 구름 조금
18일 0600시부터 (UTC)
여러 방향의 바람 3kt
시정: 10km
고도 4500ft 상공 흐림
시계 내 소나기
18일 0900시부터 (UTC)
kt
시정: 4.8km
고도 3500ft 상공 구름 많음
박무, 시계 내 소나기
18일 1000시부터 (UTC)
kt
시정: 10km
고도 10000ft 상공 흐림, 적란운.
시계 내 뇌우
18일 1500시부터 (UTC)
서남서6kt
시정: 10km
고도 6000ft 상공 구름 많음

TAF: KBTR 172324Z 1800/1824 11005KT P6SM FEW120 FM180600 VRB03KT P6SM VCSH OVC045 FM180900 00000KT 3SM BR VCSH BKN035 FM181000 00000KT P6SM VCTS OVC100CB FM181500 25006KT P6SM BKN060

4,000개 이상의 공항 관측 자료 및 예보 (METAR 및 TAF 보고).

지도상에서 검색 가능한 기상관측소가 노란 점과 빨간 점으로 표시되어 있습니다.

기상관측소 명을 보려면 표시 위로 마우스를 이동하세요.

날씨 관측과 예보를 보려면 클릭하세요.

지도 변경 : 확대하려면 엑스 표시가 있는 녹색 버튼, 축소하려면 빼기 표시가 있는 녹색 버튼, 다음 페이지의 지도를 보려면 녹색 화살표를 클릭하세요.


METAR-TAF: